createdAt,value
2018-03-02T00:00:31.957Z,40.57
2018-03-02T00:02:59.476Z,39.20
2018-03-02T00:05:27.038Z,39.20
2018-03-02T00:07:54.599Z,36.77
2018-03-02T00:10:22.888Z,42.63
2018-03-02T00:12:50.407Z,37.87
2018-03-02T00:15:17.930Z,32.57
2018-03-02T00:17:46.214Z,37.90
2018-03-02T00:20:14.495Z,38.03
2018-03-02T00:22:42.803Z,41.30
2018-03-02T00:25:10.339Z,38.97
2018-03-02T00:27:37.871Z,34.40
2018-03-02T00:30:05.380Z,36.97
2018-03-02T00:32:32.898Z,36.53
2018-03-02T00:35:01.208Z,36.60
2018-03-02T00:37:28.727Z,37.17
2018-03-02T00:39:57.010Z,37.80
2018-03-02T00:42:25.292Z,39.70
2018-03-02T00:44:53.574Z,35.03
2018-03-02T00:47:21.857Z,43.17
2018-03-02T00:49:49.387Z,32.17
2018-03-02T00:52:17.671Z,34.07
2018-03-02T00:54:45.949Z,34.53
2018-03-02T00:57:13.487Z,42.07
2018-03-02T00:59:40.994Z,33.70
2018-03-02T01:02:08.491Z,33.23
2018-03-02T01:04:36.015Z,34.90
2018-03-02T01:07:03.520Z,34.73
2018-03-02T01:09:31.511Z,36.00
2018-03-02T01:11:59.796Z,36.00
2018-03-02T01:14:27.323Z,37.27
2018-03-02T01:16:54.823Z,31.03
2018-03-02T01:19:22.347Z,38.00
2018-03-02T01:21:50.635Z,33.77
2018-03-02T01:24:18.915Z,37.77
2018-03-02T01:26:47.233Z,36.63
2018-03-02T01:29:14.734Z,37.33
2018-03-02T01:31:42.238Z,37.13
2018-03-02T01:34:09.782Z,37.40
2018-03-02T01:36:37.302Z,37.23
2018-03-02T01:39:04.799Z,43.57
2018-03-02T01:41:32.332Z,38.33
2018-03-02T01:44:00.616Z,36.70
2018-03-02T01:46:28.932Z,34.63
2018-03-02T01:48:56.463Z,40.10
2018-03-02T01:51:35.871Z,36.50
2018-03-02T01:54:03.385Z,37.67
2018-03-02T01:56:30.891Z,40.70
2018-03-02T01:58:59.157Z,39.70
2018-03-02T02:01:26.699Z,41.33
2018-03-02T02:03:54.196Z,39.47
2018-03-02T02:06:22.478Z,38.77
2018-03-02T02:08:50.023Z,42.77
2018-03-02T02:11:18.322Z,48.23
2018-03-02T02:13:45.827Z,37.10
2018-03-02T02:16:14.328Z,37.30
2018-03-02T02:18:41.827Z,33.30
2018-03-02T02:21:09.351Z,42.60
2018-03-02T02:23:37.673Z,41.73
2018-03-02T02:26:05.181Z,40.33
2018-03-02T02:28:32.704Z,41.07
2018-03-02T02:31:00.223Z,39.87
2018-03-02T02:33:27.764Z,43.33
2018-03-02T02:35:55.295Z,40.63
2018-03-02T02:38:22.812Z,41.70
2018-03-02T02:40:50.310Z,37.23
2018-03-02T02:43:18.407Z,33.87
2018-03-02T02:45:46.693Z,43.40
2018-03-02T02:48:14.974Z,41.30
2018-03-02T02:50:42.505Z,38.00
2018-03-02T02:53:10.027Z,40.97
2018-03-02T02:55:37.550Z,38.97
2018-03-02T02:58:05.072Z,38.20
2018-03-02T03:00:32.576Z,43.30
2018-03-02T03:03:00.096Z,43.90
2018-03-02T03:05:28.424Z,42.37
2018-03-02T03:07:55.979Z,46.90
2018-03-02T03:10:23.503Z,43.57
2018-03-02T03:12:52.522Z,45.27
2018-03-02T03:15:20.022Z,38.73
2018-03-02T03:17:47.554Z,41.70
2018-03-02T03:20:15.114Z,50.80
2018-03-02T03:22:42.658Z,42.90
2018-03-02T03:25:10.202Z,39.73
2018-03-02T03:27:37.738Z,43.60
2018-03-02T03:30:06.021Z,39.17
2018-03-02T03:32:34.307Z,40.53
2018-03-02T03:35:01.846Z,39.37
2018-03-02T03:37:29.368Z,39.07
2018-03-02T03:39:56.891Z,41.87
2018-03-02T03:42:24.410Z,37.20
2018-03-02T03:44:51.918Z,47.60
2018-03-02T03:47:19.420Z,44.60
2018-03-02T03:49:46.934Z,40.30
2018-03-02T03:52:14.446Z,45.23
2018-03-02T03:54:41.943Z,42.70
2018-03-02T03:57:09.468Z,42.90
2018-03-02T03:59:37.748Z,43.67
2018-03-02T04:02:06.845Z,45.30
2018-03-02T04:04:35.156Z,37.97
2018-03-02T04:07:02.699Z,44.43
2018-03-02T04:09:30.261Z,46.17
2018-03-02T04:11:57.797Z,41.07
2018-03-02T04:14:26.078Z,50.30
2018-03-02T04:16:54.375Z,51.93
2018-03-02T04:19:21.885Z,42.57
2018-03-02T04:21:49.408Z,46.30
2018-03-02T04:24:16.919Z,47.13
2018-03-02T04:26:45.198Z,42.43
2018-03-02T04:29:13.477Z,44.63
2018-03-02T04:31:41.797Z,46.33
2018-03-02T04:34:09.334Z,44.47
2018-03-02T04:36:36.866Z,35.10
2018-03-02T04:39:05.143Z,42.43
2018-03-02T04:41:33.423Z,37.60
2018-03-02T04:44:00.961Z,44.60
2018-03-02T04:46:29.257Z,41.37
2018-03-02T04:48:57.525Z,42.30
2018-03-02T04:51:25.011Z,45.10
2018-03-02T04:53:52.551Z,40.40
2018-03-02T04:56:20.830Z,33.87
2018-03-02T04:58:49.095Z,37.30
2018-03-02T05:01:17.379Z,41.20
2018-03-02T05:03:45.660Z,42.77
2018-03-02T05:06:13.943Z,52.73
2018-03-02T05:08:41.442Z,45.23
2018-03-02T05:11:09.983Z,47.30
2018-03-02T05:13:37.760Z,42.50
2018-03-02T05:16:05.287Z,45.37
2018-03-02T05:18:33.951Z,46.70
2018-03-02T05:21:01.458Z,41.70
2018-03-02T05:23:28.990Z,42.83
2018-03-02T05:25:58.315Z,45.77
2018-03-02T05:28:25.816Z,46.17
2018-03-02T05:30:53.347Z,47.40
2018-03-02T05:33:20.887Z,45.30
2018-03-02T05:35:49.175Z,44.90
2018-03-02T05:38:16.683Z,42.17
2018-03-02T05:40:44.187Z,51.37
2018-03-02T05:43:11.704Z,48.23
2018-03-02T05:45:39.231Z,45.03
2018-03-02T05:48:06.740Z,51.33
2018-03-02T05:50:35.008Z,47.47
2018-03-02T05:53:02.533Z,61.67
2018-03-02T05:55:30.112Z,40.73
2018-03-02T05:57:57.635Z,42.77
2018-03-02T06:00:25.196Z,49.47
2018-03-02T06:02:52.739Z,51.40
2018-03-02T06:05:20.231Z,52.30
2018-03-02T06:07:47.747Z,52.67
2018-03-02T06:10:16.026Z,43.73
2018-03-02T06:12:44.325Z,40.83
2018-03-02T06:15:11.847Z,40.43
2018-03-02T06:17:39.379Z,47.57
2018-03-02T06:20:07.262Z,40.47
2018-03-02T06:22:34.774Z,56.47
2018-03-02T06:25:02.287Z,43.60
2018-03-02T06:27:30.716Z,50.57
2018-03-02T06:29:58.234Z,49.63
2018-03-02T06:32:25.749Z,43.83
2018-03-02T06:34:53.359Z,43.10
2018-03-02T06:37:20.838Z,42.40
2018-03-02T06:39:49.091Z,53.43
2018-03-02T06:42:16.634Z,46.50
2018-03-02T06:44:44.143Z,51.83
2018-03-02T06:47:12.510Z,47.63
2018-03-02T06:49:40.036Z,39.33
2018-03-02T06:52:07.540Z,43.20
2018-03-02T06:54:35.056Z,46.30
2018-03-02T06:57:02.590Z,48.93
2018-03-02T06:59:30.113Z,49.87
2018-03-02T07:01:57.638Z,44.17
2018-03-02T07:04:25.166Z,43.03
2018-03-02T07:06:52.680Z,46.70
2018-03-02T07:09:20.340Z,47.60
2018-03-02T07:11:47.880Z,42.07
2018-03-02T07:14:15.406Z,44.53
2018-03-02T07:16:42.939Z,44.27
2018-03-02T07:19:10.463Z,28.87
2018-03-02T07:21:38.730Z,46.53
2018-03-02T07:24:06.242Z,48.40
2018-03-02T07:26:34.767Z,41.73
2018-03-02T07:29:03.796Z,49.80
2018-03-02T07:31:31.343Z,49.07
2018-03-02T07:33:59.656Z,42.70
2018-03-02T07:36:27.177Z,39.63
2018-03-02T07:38:55.464Z,38.13
2018-03-02T07:41:23.731Z,45.70
2018-03-02T07:43:51.274Z,45.27
2018-03-02T07:46:18.791Z,44.93
2018-03-02T07:48:46.316Z,46.27
2018-03-02T07:51:14.606Z,43.73
2018-03-02T07:53:42.109Z,48.63
2018-03-02T07:56:09.634Z,42.60
2018-03-02T07:58:37.175Z,43.93
2018-03-02T08:01:05.448Z,42.37
2018-03-02T08:03:33.734Z,42.33
2018-03-02T08:06:01.243Z,46.10
2018-03-02T08:08:28.750Z,39.40
2018-03-02T08:10:57.217Z,44.70
2018-03-02T08:13:25.482Z,46.37
2018-03-02T08:15:53.000Z,46.07
2018-03-02T08:18:20.511Z,42.47
2018-03-02T08:20:48.779Z,45.83
2018-03-02T08:23:17.067Z,45.93
2018-03-02T08:25:45.360Z,41.93
2018-03-02T08:28:12.863Z,41.13
2018-03-02T08:30:40.394Z,38.73
2018-03-02T08:33:08.655Z,50.90
2018-03-02T08:35:36.183Z,50.67
2018-03-02T08:38:04.454Z,53.83
2018-03-02T08:40:31.975Z,42.27
2018-03-02T08:42:59.519Z,39.03
2018-03-02T08:45:27.779Z,40.37
2018-03-02T08:47:55.282Z,47.20
2018-03-02T08:50:23.542Z,46.83
2018-03-02T08:52:51.034Z,46.13
2018-03-02T08:55:18.564Z,40.40
2018-03-02T08:57:46.870Z,47.70
2018-03-02T09:00:14.355Z,38.97
2018-03-02T09:02:42.640Z,37.30
2018-03-02T09:05:10.157Z,46.53
2018-03-02T09:07:37.651Z,41.30
2018-03-02T09:10:05.928Z,31.40
2018-03-02T09:12:33.424Z,46.27
2018-03-02T09:15:00.958Z,41.13
2018-03-02T09:17:28.470Z,44.27
2018-03-02T09:19:55.979Z,47.23
2018-03-02T09:22:23.504Z,45.73
2018-03-02T09:24:51.796Z,42.63
2018-03-02T09:27:19.331Z,44.33
2018-03-02T09:29:46.820Z,41.60
2018-03-02T09:32:14.344Z,41.07
2018-03-02T09:34:42.673Z,42.03
2018-03-02T09:37:10.181Z,43.47
2018-03-02T09:39:37.756Z,44.37
2018-03-02T09:42:06.020Z,46.40
2018-03-02T09:44:34.111Z,48.47
2018-03-02T09:47:02.423Z,44.23
2018-03-02T09:49:29.952Z,36.00
2018-03-02T09:51:57.476Z,47.40
2018-03-02T09:54:25.028Z,45.00
2018-03-02T09:56:52.539Z,43.10
2018-03-02T09:59:21.833Z,46.50
2018-03-02T10:01:49.354Z,45.13
2018-03-02T10:04:16.839Z,44.77
2018-03-02T10:06:44.342Z,44.80
2018-03-02T10:09:11.907Z,42.37
2018-03-02T10:11:40.169Z,45.73
2018-03-02T10:14:07.802Z,44.80
2018-03-02T10:16:35.296Z,43.90
2018-03-02T10:19:02.839Z,38.00
2018-03-02T10:21:30.339Z,45.57
2018-03-02T10:23:57.827Z,38.90
2018-03-02T10:26:25.338Z,42.57
2018-03-02T10:28:52.839Z,32.90
2018-03-02T10:31:21.103Z,41.40
2018-03-02T10:33:48.636Z,42.60
2018-03-02T10:36:16.143Z,46.60
2018-03-02T10:38:44.434Z,41.20
2018-03-02T10:41:11.938Z,37.27
2018-03-02T10:43:39.457Z,50.60
2018-03-02T10:46:07.702Z,38.63
2018-03-02T10:48:35.199Z,38.33
2018-03-02T10:51:02.688Z,40.93
2018-03-02T10:53:30.187Z,39.90
2018-03-02T10:55:58.457Z,40.53
2018-03-02T10:58:25.944Z,41.43
2018-03-02T11:00:53.438Z,44.60
2018-03-02T11:03:22.767Z,30.10
2018-03-02T11:05:50.250Z,40.70
2018-03-02T11:08:17.751Z,44.50
2018-03-02T11:10:45.299Z,39.80
2018-03-02T11:13:12.786Z,42.77
2018-03-02T11:15:40.274Z,43.47
2018-03-02T11:18:07.803Z,41.47
2018-03-02T11:20:35.571Z,40.80
2018-03-02T11:23:03.068Z,46.90
2018-03-02T11:25:31.384Z,43.33
2018-03-02T11:28:00.851Z,41.53
2018-03-02T11:30:28.703Z,41.13
2018-03-02T11:32:57.095Z,38.80
2018-03-02T11:35:24.891Z,44.00
2018-03-02T11:37:52.508Z,33.33
2018-03-02T11:40:20.826Z,41.43
2018-03-02T11:42:49.494Z,40.27
2018-03-02T11:45:17.024Z,38.67
2018-03-02T11:47:44.614Z,42.17
2018-03-02T11:50:12.273Z,41.47
2018-03-02T11:52:41.802Z,49.27
2018-03-02T11:55:10.463Z,48.17
2018-03-02T11:57:37.974Z,46.27
2018-03-02T12:00:05.472Z,40.97
2018-03-02T12:02:33.009Z,41.33
2018-03-02T12:05:01.418Z,41.03
2018-03-02T12:07:29.312Z,39.33
2018-03-02T12:09:59.040Z,39.67
2018-03-02T12:12:28.082Z,37.27
2018-03-02T12:14:58.156Z,39.17
2018-03-02T12:17:25.772Z,35.17
2018-03-02T12:19:53.464Z,37.17
2018-03-02T12:22:21.055Z,39.87
2018-03-02T12:24:48.555Z,39.90
2018-03-02T12:27:16.196Z,36.60
2018-03-02T12:29:44.588Z,39.70
2018-03-02T12:32:12.159Z,38.00
2018-03-02T12:34:39.663Z,39.13
2018-03-02T12:37:07.177Z,37.87
2018-03-02T12:39:34.836Z,38.43
2018-03-02T12:42:03.155Z,36.37
2018-03-02T12:44:30.684Z,42.13
2018-03-02T12:46:59.076Z,38.30
2018-03-02T12:49:26.603Z,37.77
2018-03-02T12:51:54.866Z,39.10
2018-03-02T12:54:24.203Z,38.67
2018-03-02T12:56:51.655Z,35.50
2018-03-02T12:59:19.150Z,44.97
2018-03-02T13:01:46.675Z,38.80
2018-03-02T13:04:14.187Z,42.63
2018-03-02T13:06:41.681Z,40.17
2018-03-02T13:09:09.218Z,40.00
2018-03-02T13:11:37.495Z,40.87
2018-03-02T13:14:05.801Z,38.30
2018-03-02T13:16:33.299Z,37.80
2018-03-02T13:19:00.794Z,42.13
2018-03-02T13:21:29.074Z,39.83
2018-03-02T13:23:57.354Z,39.93
2018-03-02T13:26:37.426Z,38.50
2018-03-02T13:29:04.958Z,36.13
2018-03-02T13:31:33.239Z,37.10
2018-03-02T13:34:13.275Z,36.63
2018-03-02T13:36:40.795Z,36.70
2018-03-02T13:39:08.316Z,39.83
2018-03-02T13:41:47.682Z,57.07
2018-03-02T13:44:15.175Z,37.90
2018-03-02T13:46:42.676Z,36.47
2018-03-02T13:49:22.175Z,40.37
2018-03-02T13:51:49.671Z,39.17
2018-03-02T13:54:17.201Z,35.63
2018-03-02T13:56:57.327Z,44.67
2018-03-02T13:59:24.828Z,41.83
2018-03-02T14:01:52.345Z,39.83
2018-03-02T14:04:45.559Z,42.90
2018-03-02T14:07:13.076Z,37.13
2018-03-02T14:09:40.617Z,45.13
2018-03-02T14:12:08.138Z,39.43
2018-03-02T14:14:35.655Z,41.87
2018-03-02T14:17:03.167Z,44.23
2018-03-02T14:19:30.673Z,40.47
2018-03-02T14:21:58.958Z,40.17
2018-03-02T14:24:27.225Z,38.80
2018-03-02T14:26:54.739Z,38.17
2018-03-02T14:29:22.259Z,36.17
2018-03-02T14:31:51.892Z,39.20
2018-03-02T14:34:19.383Z,38.47
2018-03-02T14:36:46.903Z,41.30
2018-03-02T14:39:14.411Z,35.93
2018-03-02T14:41:41.951Z,41.83
2018-03-02T14:44:09.472Z,38.43
2018-03-02T14:46:36.972Z,40.03
2018-03-02T14:49:04.499Z,44.27
2018-03-02T14:51:32.006Z,38.97
2018-03-02T14:54:00.368Z,40.30
2018-03-02T14:56:27.899Z,38.70
2018-03-02T14:58:55.610Z,38.83
2018-03-02T15:01:23.905Z,38.17
2018-03-02T15:03:51.431Z,43.50
2018-03-02T15:06:18.940Z,40.30
2018-03-02T15:08:46.469Z,38.47
2018-03-02T15:11:14.734Z,40.80
2018-03-02T15:13:42.250Z,42.90
2018-03-02T15:16:09.738Z,38.93
2018-03-02T15:18:37.253Z,40.53
2018-03-02T15:21:04.763Z,42.00
2018-03-02T15:23:32.311Z,47.47
2018-03-02T15:25:59.842Z,36.80
2018-03-02T15:28:27.341Z,48.27
2018-03-02T15:30:55.610Z,46.87
2018-03-02T15:33:23.135Z,39.73
2018-03-02T15:35:50.639Z,43.53
2018-03-02T15:38:18.928Z,42.57
2018-03-02T15:40:47.202Z,38.80
2018-03-02T15:43:15.508Z,43.77
2018-03-02T15:45:43.027Z,43.90
2018-03-02T15:48:11.310Z,44.20
2018-03-02T15:50:39.583Z,44.50
2018-03-02T15:53:08.273Z,37.57
2018-03-02T15:55:35.799Z,37.47
2018-03-02T15:58:03.329Z,43.93
2018-03-02T16:00:30.844Z,40.13
2018-03-02T16:02:59.115Z,40.93
2018-03-02T16:05:27.409Z,38.60
2018-03-02T16:07:54.990Z,45.30
2018-03-02T16:10:22.503Z,41.23
2018-03-02T16:12:51.792Z,41.53
2018-03-02T16:15:19.376Z,39.93
2018-03-02T16:17:47.652Z,49.83
2018-03-02T16:20:15.935Z,41.33
2018-03-02T16:22:43.435Z,40.07
2018-03-02T16:25:10.961Z,42.93
2018-03-02T16:27:38.476Z,42.20
2018-03-02T16:30:05.988Z,47.67
2018-03-02T16:32:33.551Z,48.10
2018-03-02T16:35:01.806Z,48.37
2018-03-02T16:37:30.009Z,49.17
2018-03-02T16:39:57.552Z,44.90
2018-03-02T16:42:25.077Z,49.20
2018-03-02T16:44:53.367Z,45.60
2018-03-02T16:47:21.640Z,42.10
2018-03-02T16:49:49.936Z,46.90
2018-03-02T16:52:17.466Z,49.93
2018-03-02T16:54:45.753Z,59.27
2018-03-02T16:57:14.040Z,51.63
2018-03-02T16:59:41.587Z,47.57
2018-03-02T17:02:09.146Z,50.53
2018-03-02T17:04:36.668Z,45.20
2018-03-02T17:07:04.176Z,55.17
2018-03-02T17:09:32.372Z,44.20
2018-03-02T17:11:59.938Z,50.43
2018-03-02T17:14:27.478Z,48.83
2018-03-02T17:16:55.066Z,52.57
2018-03-02T17:19:22.597Z,50.20
2018-03-02T17:21:50.119Z,49.50
2018-03-02T17:24:18.385Z,58.17
2018-03-02T17:26:46.690Z,57.23
2018-03-02T17:29:14.236Z,49.17
2018-03-02T17:31:42.531Z,55.07
2018-03-02T17:34:10.057Z,54.03
2018-03-02T17:36:38.336Z,52.47
2018-03-02T17:39:06.659Z,51.03
2018-03-02T17:41:34.187Z,51.37
2018-03-02T17:44:01.727Z,60.20
2018-03-02T17:46:30.046Z,48.67
2018-03-02T17:48:57.550Z,51.70
2018-03-02T17:51:25.073Z,60.10
2018-03-02T17:53:52.572Z,50.60
2018-03-02T17:56:20.122Z,55.60
2018-03-02T17:58:47.613Z,51.17
2018-03-02T18:01:15.147Z,48.30
2018-03-02T18:03:42.682Z,52.30
2018-03-02T18:06:10.972Z,49.57
2018-03-02T18:08:38.458Z,55.17
2018-03-02T18:11:06.803Z,60.47
2018-03-02T18:13:34.290Z,48.80
2018-03-02T18:16:02.574Z,50.50
2018-03-02T18:18:30.860Z,55.37
2018-03-02T18:20:58.359Z,49.50
2018-03-02T18:23:25.884Z,48.50
2018-03-02T18:25:53.401Z,48.50
2018-03-02T18:28:21.683Z,46.77
2018-03-02T18:30:50.013Z,56.53
2018-03-02T18:33:17.551Z,47.23
2018-03-02T18:35:45.055Z,47.90
2018-03-02T18:38:12.580Z,44.77
2018-03-02T18:40:40.097Z,49.43
2018-03-02T18:43:08.381Z,44.97
2018-03-02T18:45:36.663Z,49.53
2018-03-02T18:48:04.192Z,50.20
2018-03-02T18:50:31.688Z,48.47
2018-03-02T18:52:59.203Z,48.10
2018-03-02T18:55:26.710Z,48.80
2018-03-02T18:57:54.243Z,43.40
2018-03-02T19:00:22.515Z,45.40
2018-03-02T19:02:50.056Z,43.97
2018-03-02T19:05:17.543Z,47.67
2018-03-02T19:07:45.064Z,46.03
2018-03-02T19:10:12.560Z,48.83
2018-03-02T19:12:40.087Z,53.30
2018-03-02T19:15:07.588Z,49.10
2018-03-02T19:17:35.108Z,45.13
2018-03-02T19:20:02.689Z,54.67
2018-03-02T19:22:30.209Z,45.03
2018-03-02T19:24:57.751Z,49.03
2018-03-02T19:27:25.383Z,45.20
2018-03-02T19:29:52.956Z,43.33
2018-03-02T19:32:20.556Z,43.73
2018-03-02T19:34:48.961Z,46.60
2018-03-02T19:37:16.556Z,47.80
2018-03-02T19:39:44.184Z,43.90
2018-03-02T19:42:11.827Z,46.27
2018-03-02T19:44:39.470Z,49.03
2018-03-02T19:47:07.092Z,55.60
2018-03-02T19:49:34.750Z,46.57
2018-03-02T19:52:02.341Z,52.37
2018-03-02T19:54:29.947Z,47.77
2018-03-02T19:56:57.525Z,45.83
2018-03-02T19:59:25.157Z,42.30
2018-03-02T20:01:53.541Z,44.53
2018-03-02T20:04:21.120Z,51.17
2018-03-02T20:06:48.658Z,47.33
2018-03-02T20:09:16.972Z,48.33
2018-03-02T20:11:44.556Z,47.70
2018-03-02T20:14:12.946Z,42.40
2018-03-02T20:16:40.576Z,45.70
2018-03-02T20:19:08.164Z,44.30
2018-03-02T20:21:35.719Z,42.53
2018-03-02T20:24:03.285Z,49.60
2018-03-02T20:26:31.616Z,47.63
2018-03-02T20:28:59.160Z,50.00
2018-03-02T20:31:26.695Z,49.70
2018-03-02T20:33:54.960Z,48.37
2018-03-02T20:36:22.472Z,47.23
2018-03-02T20:38:49.976Z,46.17
2018-03-02T20:41:17.491Z,41.77
2018-03-02T20:43:45.006Z,49.30
2018-03-02T20:46:13.287Z,48.87
2018-03-02T20:48:42.452Z,48.10
2018-03-02T20:51:10.009Z,51.40
2018-03-02T20:53:37.531Z,49.00
2018-03-02T20:56:05.057Z,42.63
2018-03-02T20:58:33.355Z,49.03
2018-03-02T21:01:00.883Z,43.53
2018-03-02T21:03:29.180Z,50.10
2018-03-02T21:05:56.721Z,47.07
2018-03-02T21:08:25.033Z,49.13
2018-03-02T21:10:52.548Z,54.50
2018-03-02T21:13:20.092Z,48.33
2018-03-02T21:15:47.616Z,52.53
2018-03-02T21:18:15.131Z,51.70
2018-03-02T21:20:43.414Z,56.23
2018-03-02T21:23:10.939Z,52.57
2018-03-02T21:25:38.461Z,48.37
2018-03-02T21:28:06.042Z,46.73
2018-03-02T21:30:33.587Z,51.83
2018-03-02T21:33:01.127Z,48.97
2018-03-02T21:35:28.632Z,49.23
2018-03-02T21:37:56.153Z,49.50
2018-03-02T21:40:23.739Z,50.30
2018-03-02T21:42:51.978Z,53.97
2018-03-02T21:45:19.472Z,51.67
2018-03-02T21:47:46.980Z,47.90
2018-03-02T21:50:14.500Z,47.53
2018-03-02T21:52:42.063Z,51.07
2018-03-02T21:55:09.576Z,48.03
2018-03-02T21:57:37.103Z,44.83
2018-03-02T22:00:05.379Z,50.43
2018-03-02T22:02:32.875Z,45.20
2018-03-02T22:05:00.676Z,53.93
2018-03-02T22:07:28.190Z,52.60
2018-03-02T22:09:55.700Z,49.67
2018-03-02T22:12:23.212Z,49.50
2018-03-02T22:14:50.761Z,47.20
2018-03-02T22:17:18.297Z,49.47
2018-03-02T22:19:46.625Z,46.07
2018-03-02T22:22:14.128Z,48.77
2018-03-02T22:24:42.417Z,50.47
2018-03-02T22:27:09.971Z,56.83
2018-03-02T22:29:37.528Z,56.10
2018-03-02T22:32:05.152Z,47.40
2018-03-02T22:34:32.676Z,53.30
2018-03-02T22:37:00.191Z,51.73
2018-03-02T22:39:27.702Z,53.63
2018-03-02T22:41:55.224Z,57.87
2018-03-02T22:44:23.518Z,60.90
2018-03-02T22:46:51.029Z,58.17
2018-03-02T22:49:18.567Z,54.17
2018-03-02T22:51:46.068Z,58.13
2018-03-02T22:54:14.375Z,63.50
2018-03-02T22:56:41.882Z,52.60
2018-03-02T22:59:09.416Z,44.03
2018-03-02T23:01:36.917Z,55.00
2018-03-02T23:04:05.215Z,48.23
2018-03-02T23:06:32.741Z,51.10
2018-03-02T23:09:00.244Z,64.60
2018-03-02T23:11:27.759Z,59.87
2018-03-02T23:13:55.287Z,53.37
2018-03-02T23:16:22.808Z,50.27
2018-03-02T23:18:50.310Z,55.60
2018-03-02T23:21:17.869Z,54.27
2018-03-02T23:23:45.389Z,53.37
2018-03-02T23:26:12.994Z,47.80
2018-03-02T23:28:41.297Z,54.63
2018-03-02T23:31:09.597Z,52.40
2018-03-02T23:33:37.121Z,51.83
2018-03-02T23:36:04.623Z,48.70
2018-03-02T23:38:32.144Z,52.63
2018-03-02T23:41:00.427Z,47.17
2018-03-02T23:43:28.683Z,49.30
2018-03-02T23:45:56.452Z,47.87
2018-03-02T23:48:23.939Z,48.63
2018-03-02T23:50:51.446Z,43.80
2018-03-02T23:53:18.973Z,47.93
2018-03-02T23:55:46.498Z,44.93
2018-03-02T23:58:14.761Z,47.50
